sensor_id;sensor_type;location;lat;lon;timestamp;P1;durP1;ratioP1;P2;durP2;ratioP2
55220;SDS011;41089;51.448;6.604;2023-11-19T00:01:38;5.28;;;4.38;;
55220;SDS011;41089;51.448;6.604;2023-11-19T00:07:38;6.23;;;5.00;;
55220;SDS011;41089;51.448;6.604;2023-11-19T00:13:41;6.78;;;5.15;;
55220;SDS011;41089;51.448;6.604;2023-11-19T00:19:41;5.60;;;4.30;;
55220;SDS011;41089;51.448;6.604;2023-11-19T00:31:43;5.70;;;4.10;;
55220;SDS011;41089;51.448;6.604;2023-11-19T00:37:43;4.03;;;3.63;;
55220;SDS011;41089;51.448;6.604;2023-11-19T00:43:45;4.53;;;3.45;;
55220;SDS011;41089;51.448;6.604;2023-11-19T00:49:49;6.68;;;4.40;;
55220;SDS011;41089;51.448;6.604;2023-11-19T00:55:50;5.05;;;4.57;;
55220;SDS011;41089;51.448;6.604;2023-11-19T01:07:53;4.60;;;4.15;;
55220;SDS011;41089;51.448;6.604;2023-11-19T01:13:54;6.70;;;4.43;;
55220;SDS011;41089;51.448;6.604;2023-11-19T01:19:54;4.33;;;3.93;;
55220;SDS011;41089;51.448;6.604;2023-11-19T01:25:55;3.60;;;3.30;;
55220;SDS011;41089;51.448;6.604;2023-11-19T01:31:55;3.97;;;3.67;;
55220;SDS011;41089;51.448;6.604;2023-11-19T01:37:56;4.57;;;3.72;;
55220;SDS011;41089;51.448;6.604;2023-11-19T01:43:56;4.35;;;3.75;;
55220;SDS011;41089;51.448;6.604;2023-11-19T01:55:58;5.60;;;3.92;;
55220;SDS011;41089;51.448;6.604;2023-11-19T02:01:58;3.75;;;3.28;;
55220;SDS011;41089;51.448;6.604;2023-11-19T02:07:59;6.80;;;3.50;;
55220;SDS011;41089;51.448;6.604;2023-11-19T02:13:59;7.78;;;2.90;;
55220;SDS011;41089;51.448;6.604;2023-11-19T02:20:00;7.73;;;2.40;;
55220;SDS011;41089;51.448;6.604;2023-11-19T02:32:15;8.43;;;2.35;;
55220;SDS011;41089;51.448;6.604;2023-11-19T02:38:15;7.25;;;2.22;;
55220;SDS011;41089;51.448;6.604;2023-11-19T02:44:16;9.47;;;2.80;;
55220;SDS011;41089;51.448;6.604;2023-11-19T02:50:17;6.80;;;2.35;;
55220;SDS011;41089;51.448;6.604;2023-11-19T02:56:24;10.43;;;2.67;;
55220;SDS011;41089;51.448;6.604;2023-11-19T03:02:25;15.13;;;3.60;;
55220;SDS011;41089;51.448;6.604;2023-11-19T03:08:34;9.07;;;3.05;;
55220;SDS011;41089;51.448;6.604;2023-11-19T03:14:35;15.23;;;3.58;;
55220;SDS011;41089;51.448;6.604;2023-11-19T03:20:35;10.13;;;2.57;;
55220;SDS011;41089;51.448;6.604;2023-11-19T03:26:36;13.83;;;2.97;;
55220;SDS011;41089;51.448;6.604;2023-11-19T03:32:37;16.02;;;3.35;;
55220;SDS011;41089;51.448;6.604;2023-11-19T03:38:38;22.20;;;4.88;;
55220;SDS011;41089;51.448;6.604;2023-11-19T03:44:42;16.67;;;2.80;;
55220;SDS011;41089;51.448;6.604;2023-11-19T03:50:43;21.53;;;4.23;;
55220;SDS011;41089;51.448;6.604;2023-11-19T03:56:43;12.65;;;3.00;;
55220;SDS011;41089;51.448;6.604;2023-11-19T04:02:43;18.35;;;3.67;;
55220;SDS011;41089;51.448;6.604;2023-11-19T04:08:44;16.13;;;3.22;;
55220;SDS011;41089;51.448;6.604;2023-11-19T04:14:44;19.70;;;4.22;;
55220;SDS011;41089;51.448;6.604;2023-11-19T04:20:45;16.20;;;3.60;;
55220;SDS011;41089;51.448;6.604;2023-11-19T04:32:46;22.73;;;4.22;;
55220;SDS011;41089;51.448;6.604;2023-11-19T04:38:48;22.13;;;4.85;;
55220;SDS011;41089;51.448;6.604;2023-11-19T04:44:50;19.10;;;4.50;;
55220;SDS011;41089;51.448;6.604;2023-11-19T04:50:50;26.08;;;4.30;;
55220;SDS011;41089;51.448;6.604;2023-11-19T04:56:52;21.25;;;5.13;;
55220;SDS011;41089;51.448;6.604;2023-11-19T05:02:53;20.13;;;4.20;;
55220;SDS011;41089;51.448;6.604;2023-11-19T05:08:54;21.70;;;5.15;;
55220;SDS011;41089;51.448;6.604;2023-11-19T05:14:54;24.73;;;4.32;;
55220;SDS011;41089;51.448;6.604;2023-11-19T05:20:56;23.45;;;4.75;;
55220;SDS011;41089;51.448;6.604;2023-11-19T05:26:59;24.90;;;4.38;;
55220;SDS011;41089;51.448;6.604;2023-11-19T05:32:59;20.17;;;4.35;;
55220;SDS011;41089;51.448;6.604;2023-11-19T05:39:02;25.63;;;4.80;;
55220;SDS011;41089;51.448;6.604;2023-11-19T05:45:03;32.60;;;7.18;;
55220;SDS011;41089;51.448;6.604;2023-11-19T05:51:03;20.52;;;3.97;;
55220;SDS011;41089;51.448;6.604;2023-11-19T05:57:05;24.65;;;4.60;;
55220;SDS011;41089;51.448;6.604;2023-11-19T06:03:09;21.00;;;4.43;;
55220;SDS011;41089;51.448;6.604;2023-11-19T06:09:10;26.65;;;4.47;;
55220;SDS011;41089;51.448;6.604;2023-11-19T06:15:10;27.30;;;4.20;;
55220;SDS011;41089;51.448;6.604;2023-11-19T06:21:12;19.67;;;5.45;;
55220;SDS011;41089;51.448;6.604;2023-11-19T06:27:12;20.60;;;4.05;;
55220;SDS011;41089;51.448;6.604;2023-11-19T06:33:13;20.73;;;4.93;;
55220;SDS011;41089;51.448;6.604;2023-11-19T06:39:14;35.80;;;6.35;;
55220;SDS011;41089;51.448;6.604;2023-11-19T06:45:15;26.45;;;4.97;;
55220;SDS011;41089;51.448;6.604;2023-11-19T06:51:16;23.70;;;5.88;;
55220;SDS011;41089;51.448;6.604;2023-11-19T06:57:17;20.70;;;4.47;;
55220;SDS011;41089;51.448;6.604;2023-11-19T07:03:17;22.13;;;5.43;;
55220;SDS011;41089;51.448;6.604;2023-11-19T07:09:17;23.97;;;6.27;;
55220;SDS011;41089;51.448;6.604;2023-11-19T07:15:18;39.65;;;6.75;;
55220;SDS011;41089;51.448;6.604;2023-11-19T07:21:19;27.30;;;4.97;;
55220;SDS011;41089;51.448;6.604;2023-11-19T07:27:19;29.15;;;5.63;;
55220;SDS011;41089;51.448;6.604;2023-11-19T07:39:20;26.77;;;7.15;;
55220;SDS011;41089;51.448;6.604;2023-11-19T07:45:21;25.15;;;6.03;;
55220;SDS011;41089;51.448;6.604;2023-11-19T07:51:21;23.13;;;5.13;;
55220;SDS011;41089;51.448;6.604;2023-11-19T07:57:21;28.50;;;5.17;;
55220;SDS011;41089;51.448;6.604;2023-11-19T08:03:24;22.80;;;4.97;;
55220;SDS011;41089;51.448;6.604;2023-11-19T08:09:24;23.60;;;4.97;;
55220;SDS011;41089;51.448;6.604;2023-11-19T08:15:24;29.93;;;5.03;;
55220;SDS011;41089;51.448;6.604;2023-11-19T08:21:25;29.02;;;5.18;;
55220;SDS011;41089;51.448;6.604;2023-11-19T08:27:27;27.67;;;5.43;;
55220;SDS011;41089;51.448;6.604;2023-11-19T08:33:27;21.80;;;4.90;;
55220;SDS011;41089;51.448;6.604;2023-11-19T08:39:27;28.40;;;6.53;;
55220;SDS011;41089;51.448;6.604;2023-11-19T08:45:29;30.48;;;5.95;;
55220;SDS011;41089;51.448;6.604;2023-11-19T08:51:31;22.38;;;4.32;;
55220;SDS011;41089;51.448;6.604;2023-11-19T09:03:32;31.90;;;6.88;;
55220;SDS011;41089;51.448;6.604;2023-11-19T09:09:33;29.27;;;5.50;;
55220;SDS011;41089;51.448;6.604;2023-11-19T09:15:35;23.13;;;6.00;;
55220;SDS011;41089;51.448;6.604;2023-11-19T09:27:39;28.48;;;5.35;;
55220;SDS011;41089;51.448;6.604;2023-11-19T09:39:39;28.83;;;7.38;;
55220;SDS011;41089;51.448;6.604;2023-11-19T09:45:49;28.70;;;5.53;;
55220;SDS011;41089;51.448;6.604;2023-11-19T09:51:51;30.92;;;6.05;;
55220;SDS011;41089;51.448;6.604;2023-11-19T09:57:51;29.73;;;5.85;;
55220;SDS011;41089;51.448;6.604;2023-11-19T10:03:52;21.23;;;5.30;;
55220;SDS011;41089;51.448;6.604;2023-11-19T10:09:55;27.40;;;4.97;;
55220;SDS011;41089;51.448;6.604;2023-11-19T10:15:56;23.50;;;5.95;;
55220;SDS011;41089;51.448;6.604;2023-11-19T10:22:04;33.20;;;5.93;;
55220;SDS011;41089;51.448;6.604;2023-11-19T10:28:04;22.00;;;5.30;;
55220;SDS011;41089;51.448;6.604;2023-11-19T10:40:06;32.17;;;6.20;;
55220;SDS011;41089;51.448;6.604;2023-11-19T10:46:10;30.50;;;5.20;;
55220;SDS011;41089;51.448;6.604;2023-11-19T10:52:11;21.65;;;5.20;;
55220;SDS011;41089;51.448;6.604;2023-11-19T10:58:16;24.95;;;4.97;;
55220;SDS011;41089;51.448;6.604;2023-11-19T11:04:19;22.20;;;4.07;;
55220;SDS011;41089;51.448;6.604;2023-11-19T11:10:25;23.90;;;5.65;;
55220;SDS011;41089;51.448;6.604;2023-11-19T11:16:26;26.40;;;6.00;;
55220;SDS011;41089;51.448;6.604;2023-11-19T11:22:27;23.75;;;5.03;;
55220;SDS011;41089;51.448;6.604;2023-11-19T11:41:18;24.13;;;4.40;;
55220;SDS011;41089;51.448;6.604;2023-11-19T11:47:22;22.75;;;5.90;;
55220;SDS011;41089;51.448;6.604;2023-11-19T11:53:24;26.88;;;5.53;;
55220;SDS011;41089;51.448;6.604;2023-11-19T11:59:25;26.75;;;4.68;;
55220;SDS011;41089;51.448;6.604;2023-11-19T12:05:25;18.98;;;4.88;;
55220;SDS011;41089;51.448;6.604;2023-11-19T12:11:27;17.52;;;3.97;;
55220;SDS011;41089;51.448;6.604;2023-11-19T12:23:47;20.50;;;4.82;;
55220;SDS011;41089;51.448;6.604;2023-11-19T12:29:48;22.05;;;4.88;;
55220;SDS011;41089;51.448;6.604;2023-11-19T12:35:49;15.57;;;3.88;;
55220;SDS011;41089;51.448;6.604;2023-11-19T12:41:50;23.73;;;4.50;;
55220;SDS011;41089;51.448;6.604;2023-11-19T12:48:12;22.20;;;4.78;;
55220;SDS011;41089;51.448;6.604;2023-11-19T12:54:12;17.30;;;3.88;;
55220;SDS011;41089;51.448;6.604;2023-11-19T13:00:20;15.70;;;3.20;;
55220;SDS011;41089;51.448;6.604;2023-11-19T13:06:22;17.48;;;3.58;;
55220;SDS011;41089;51.448;6.604;2023-11-19T13:12:22;20.73;;;4.20;;
55220;SDS011;41089;51.448;6.604;2023-11-19T13:18:23;18.75;;;5.03;;
55220;SDS011;41089;51.448;6.604;2023-11-19T13:30:23;22.02;;;5.78;;
55220;SDS011;41089;51.448;6.604;2023-11-19T13:36:24;21.30;;;4.25;;
55220;SDS011;41089;51.448;6.604;2023-11-19T13:42:26;19.67;;;3.70;;
55220;SDS011;41089;51.448;6.604;2023-11-19T13:48:27;19.90;;;4.03;;
55220;SDS011;41089;51.448;6.604;2023-11-19T13:54:28;20.42;;;4.80;;
55220;SDS011;41089;51.448;6.604;2023-11-19T14:06:29;19.08;;;4.38;;
55220;SDS011;41089;51.448;6.604;2023-11-19T14:12:30;22.30;;;4.67;;
55220;SDS011;41089;51.448;6.604;2023-11-19T14:18:32;25.10;;;5.10;;
55220;SDS011;41089;51.448;6.604;2023-11-19T14:24:33;19.80;;;4.35;;
55220;SDS011;41089;51.448;6.604;2023-11-19T14:30:35;23.85;;;5.28;;
55220;SDS011;41089;51.448;6.604;2023-11-19T14:36:36;23.40;;;5.85;;
55220;SDS011;41089;51.448;6.604;2023-11-19T14:42:37;15.32;;;4.13;;
55220;SDS011;41089;51.448;6.604;2023-11-19T14:48:39;19.17;;;4.47;;
55220;SDS011;41089;51.448;6.604;2023-11-19T14:54:39;17.40;;;4.28;;
55220;SDS011;41089;51.448;6.604;2023-11-19T15:00:40;19.77;;;3.88;;
55220;SDS011;41089;51.448;6.604;2023-11-19T15:06:40;21.17;;;4.28;;
55220;SDS011;41089;51.448;6.604;2023-11-19T15:12:41;17.10;;;4.00;;
55220;SDS011;41089;51.448;6.604;2023-11-19T15:18:42;23.60;;;4.78;;
55220;SDS011;41089;51.448;6.604;2023-11-19T15:24:42;25.13;;;5.53;;
55220;SDS011;41089;51.448;6.604;2023-11-19T15:30:42;18.83;;;4.32;;
55220;SDS011;41089;51.448;6.604;2023-11-19T15:42:46;22.92;;;4.00;;
55220;SDS011;41089;51.448;6.604;2023-11-19T15:48:47;21.70;;;4.88;;
55220;SDS011;41089;51.448;6.604;2023-11-19T15:54:48;21.93;;;4.47;;
55220;SDS011;41089;51.448;6.604;2023-11-19T16:00:49;29.40;;;5.13;;
55220;SDS011;41089;51.448;6.604;2023-11-19T16:06:49;26.13;;;5.57;;
55220;SDS011;41089;51.448;6.604;2023-11-19T16:12:49;21.98;;;5.43;;
55220;SDS011;41089;51.448;6.604;2023-11-19T16:18:50;24.45;;;5.22;;
55220;SDS011;41089;51.448;6.604;2023-11-19T16:24:50;17.75;;;4.53;;
55220;SDS011;41089;51.448;6.604;2023-11-19T16:30:53;24.88;;;4.72;;
55220;SDS011;41089;51.448;6.604;2023-11-19T16:36:53;23.08;;;3.92;;
55220;SDS011;41089;51.448;6.604;2023-11-19T16:42:54;20.55;;;4.43;;
55220;SDS011;41089;51.448;6.604;2023-11-19T16:48:54;19.00;;;4.32;;
55220;SDS011;41089;51.448;6.604;2023-11-19T16:54:56;16.17;;;3.58;;
55220;SDS011;41089;51.448;6.604;2023-11-19T17:00:56;18.92;;;4.22;;
55220;SDS011;41089;51.448;6.604;2023-11-19T17:06:58;20.00;;;3.70;;
55220;SDS011;41089;51.448;6.604;2023-11-19T17:12:58;22.75;;;4.57;;
55220;SDS011;41089;51.448;6.604;2023-11-19T17:18:59;21.80;;;4.20;;
55220;SDS011;41089;51.448;6.604;2023-11-19T17:25:00;15.80;;;5.22;;
55220;SDS011;41089;51.448;6.604;2023-11-19T17:31:02;25.35;;;4.68;;
55220;SDS011;41089;51.448;6.604;2023-11-19T17:37:03;18.98;;;4.13;;
55220;SDS011;41089;51.448;6.604;2023-11-19T17:43:03;23.90;;;4.90;;
55220;SDS011;41089;51.448;6.604;2023-11-19T17:49:04;19.40;;;4.18;;
55220;SDS011;41089;51.448;6.604;2023-11-19T17:55:05;21.70;;;3.95;;
55220;SDS011;41089;51.448;6.604;2023-11-19T18:01:05;20.65;;;4.75;;
55220;SDS011;41089;51.448;6.604;2023-11-19T18:07:05;27.70;;;4.77;;
55220;SDS011;41089;51.448;6.604;2023-11-19T18:13:08;25.92;;;4.15;;
55220;SDS011;41089;51.448;6.604;2023-11-19T18:19:12;23.52;;;5.38;;
55220;SDS011;41089;51.448;6.604;2023-11-19T18:25:12;21.42;;;4.65;;
55220;SDS011;41089;51.448;6.604;2023-11-19T18:31:13;21.55;;;4.53;;
55220;SDS011;41089;51.448;6.604;2023-11-19T18:37:14;22.03;;;4.50;;
55220;SDS011;41089;51.448;6.604;2023-11-19T18:43:14;15.15;;;3.67;;
55220;SDS011;41089;51.448;6.604;2023-11-19T18:49:14;25.03;;;4.43;;
55220;SDS011;41089;51.448;6.604;2023-11-19T18:55:15;22.85;;;4.10;;
55220;SDS011;41089;51.448;6.604;2023-11-19T19:01:15;27.80;;;5.00;;
55220;SDS011;41089;51.448;6.604;2023-11-19T19:07:17;18.90;;;3.78;;
55220;SDS011;41089;51.448;6.604;2023-11-19T19:13:19;16.92;;;3.53;;
55220;SDS011;41089;51.448;6.604;2023-11-19T19:19:19;15.68;;;3.70;;
55220;SDS011;41089;51.448;6.604;2023-11-19T19:25:20;14.73;;;3.42;;
55220;SDS011;41089;51.448;6.604;2023-11-19T19:31:20;15.83;;;3.90;;
55220;SDS011;41089;51.448;6.604;2023-11-19T19:37:20;13.80;;;3.70;;
55220;SDS011;41089;51.448;6.604;2023-11-19T19:43:22;20.35;;;3.45;;
55220;SDS011;41089;51.448;6.604;2023-11-19T19:49:25;14.50;;;3.20;;
55220;SDS011;41089;51.448;6.604;2023-11-19T19:55:29;12.63;;;3.40;;
55220;SDS011;41089;51.448;6.604;2023-11-19T20:01:30;12.00;;;3.17;;
55220;SDS011;41089;51.448;6.604;2023-11-19T20:07:30;17.77;;;3.80;;
55220;SDS011;41089;51.448;6.604;2023-11-19T20:13:31;13.93;;;4.53;;
55220;SDS011;41089;51.448;6.604;2023-11-19T20:19:31;11.18;;;2.65;;
55220;SDS011;41089;51.448;6.604;2023-11-19T20:25:32;13.48;;;2.92;;
55220;SDS011;41089;51.448;6.604;2023-11-19T20:31:35;16.88;;;4.03;;
55220;SDS011;41089;51.448;6.604;2023-11-19T20:37:39;14.18;;;3.72;;
55220;SDS011;41089;51.448;6.604;2023-11-19T20:43:40;12.93;;;3.00;;
55220;SDS011;41089;51.448;6.604;2023-11-19T20:49:40;21.70;;;5.43;;
55220;SDS011;41089;51.448;6.604;2023-11-19T20:55:41;10.15;;;2.83;;
55220;SDS011;41089;51.448;6.604;2023-11-19T21:01:44;11.25;;;3.72;;
55220;SDS011;41089;51.448;6.604;2023-11-19T21:07:52;13.77;;;3.50;;
55220;SDS011;41089;51.448;6.604;2023-11-19T21:13:52;11.38;;;2.78;;
55220;SDS011;41089;51.448;6.604;2023-11-19T21:19:53;8.27;;;2.30;;
55220;SDS011;41089;51.448;6.604;2023-11-19T21:25:53;12.63;;;2.60;;
55220;SDS011;41089;51.448;6.604;2023-11-19T21:31:55;10.70;;;2.40;;
55220;SDS011;41089;51.448;6.604;2023-11-19T21:37:56;10.77;;;1.88;;
55220;SDS011;41089;51.448;6.604;2023-11-19T21:43:57;7.53;;;2.05;;
55220;SDS011;41089;51.448;6.604;2023-11-19T21:49:57;5.27;;;1.80;;
55220;SDS011;41089;51.448;6.604;2023-11-19T21:55:59;8.80;;;1.92;;
55220;SDS011;41089;51.448;6.604;2023-11-19T22:02:00;3.65;;;1.80;;
55220;SDS011;41089;51.448;6.604;2023-11-19T22:08:01;7.43;;;2.78;;
55220;SDS011;41089;51.448;6.604;2023-11-19T22:14:02;10.63;;;2.40;;
55220;SDS011;41089;51.448;6.604;2023-11-19T22:20:04;9.95;;;2.40;;
55220;SDS011;41089;51.448;6.604;2023-11-19T22:26:05;6.88;;;2.00;;
55220;SDS011;41089;51.448;6.604;2023-11-19T22:32:05;10.30;;;2.55;;
55220;SDS011;41089;51.448;6.604;2023-11-19T22:38:06;9.68;;;2.38;;
55220;SDS011;41089;51.448;6.604;2023-11-19T22:44:06;7.47;;;2.07;;
55220;SDS011;41089;51.448;6.604;2023-11-19T22:50:07;10.15;;;3.10;;
55220;SDS011;41089;51.448;6.604;2023-11-19T22:56:09;10.82;;;3.90;;
55220;SDS011;41089;51.448;6.604;2023-11-19T23:02:11;7.57;;;1.92;;
55220;SDS011;41089;51.448;6.604;2023-11-19T23:08:12;5.82;;;1.75;;
55220;SDS011;41089;51.448;6.604;2023-11-19T23:14:12;6.85;;;1.92;;
55220;SDS011;41089;51.448;6.604;2023-11-19T23:20:13;8.83;;;2.20;;
55220;SDS011;41089;51.448;6.604;2023-11-19T23:26:13;8.75;;;2.00;;
55220;SDS011;41089;51.448;6.604;2023-11-19T23:32:14;11.20;;;2.38;;
55220;SDS011;41089;51.448;6.604;2023-11-19T23:38:15;6.57;;;1.90;;
55220;SDS011;41089;51.448;6.604;2023-11-19T23:44:17;14.85;;;2.53;;
55220;SDS011;41089;51.448;6.604;2023-11-19T23:50:18;11.18;;;1.95;;
55220;SDS011;41089;51.448;6.604;2023-11-19T23:56:19;10.52;;;2.08;;
